Time;durP1;ratioP1;P1;durP2;ratioP2;P2;SDS_P1;SDS_P2;PMS_P1;PMS_P2;Temp;Humidity;BMP_temperature;BMP_pressure;BME280_temperature;BME280_humidity;BME280_pressure;Samples;Min_cycle;Max_cycle;Signal;HPM_P1;HPM_P2
2021/07/04 00:00:37;;;;;;;14.37;13.00;;;19.00;99.90;;;;;;5072379;28;20691;-73
2021/07/04 00:03:04;;;;;;;14.37;12.87;;;19.00;99.90;;;;;;5072666;28;20619;-73
2021/07/04 00:05:35;;;;;;;14.27;12.87;;;19.00;99.90;;;;;;5072658;28;20450;-73
2021/07/04 00:08:00;;;;;;;14.50;13.20;;;18.90;99.90;;;;;;5072843;28;20425;-73
2021/07/04 00:10:30;;;;;;;14.93;13.17;;;18.90;99.90;;;;;;5072265;28;20929;-73
2021/07/04 00:12:57;;;;;;;13.87;12.47;;;18.90;99.90;;;;;;5072602;28;20152;-73
2021/07/04 00:15:25;;;;;;;15.23;13.77;;;18.90;99.90;;;;;;5072598;28;20831;-73
2021/07/04 00:17:51;;;;;;;13.73;12.37;;;18.90;99.90;;;;;;5072455;28;20893;-73
2021/07/04 00:20:18;;;;;;;13.90;12.50;;;18.90;99.90;;;;;;5072198;28;20506;-73
2021/07/04 00:22:45;;;;;;;14.53;13.20;;;18.90;99.90;;;;;;5072613;28;20236;-73
2021/07/04 00:25:13;;;;;;;14.93;13.53;;;18.90;99.90;;;;;;5072405;28;20398;-73
2021/07/04 00:27:38;;;;;;;13.10;11.90;;;18.80;99.90;;;;;;5072458;28;20477;-73
2021/07/04 00:30:08;;;;;;;13.57;12.17;;;18.80;99.90;;;;;;5071838;28;20611;-73
2021/07/04 00:32:34;;;;;;;13.47;12.20;;;18.90;99.90;;;;;;5071983;28;20193;-73
2021/07/04 00:35:00;;;;;;;16.00;14.33;;;18.90;99.90;;;;;;5071848;28;20976;-73
2021/07/04 00:37:26;;;;;;;16.33;14.80;;;18.90;99.90;;;;;;5072617;28;20191;-73
2021/07/04 00:39:51;;;;;;;16.37;14.87;;;18.90;99.90;;;;;;5072003;28;20456;-73
2021/07/04 00:42:17;;;;;;;17.80;16.03;;;18.80;99.90;;;;;;5071919;28;20186;-73
2021/07/04 00:44:42;;;;;;;18.00;16.30;;;18.80;99.90;;;;;;5072206;28;20165;-73
2021/07/04 00:47:08;;;;;;;18.07;16.30;;;18.80;99.90;;;;;;5072251;28;20163;-73
2021/07/04 00:49:34;;;;;;;15.70;14.20;;;18.80;99.90;;;;;;5072349;28;20172;-73
2021/07/04 00:52:01;;;;;;;16.50;14.90;;;18.70;99.90;;;;;;5072338;28;20216;-73
2021/07/04 00:54:27;;;;;;;14.93;13.43;;;18.70;99.90;;;;;;5071594;28;20233;-73
2021/07/04 00:56:53;;;;;;;16.10;14.50;;;18.70;99.90;;;;;;5072086;28;20483;-73
2021/07/04 00:59:20;;;;;;;15.53;14.10;;;18.70;99.90;;;;;;5071450;28;20482;-73
2021/07/04 01:01:47;;;;;;;15.77;14.30;;;18.70;99.90;;;;;;5072142;28;20504;-73
2021/07/04 01:04:13;;;;;;;17.20;15.50;;;18.70;99.90;;;;;;5071031;28;20437;-73
2021/07/04 01:06:40;;;;;;;16.27;14.87;;;18.70;99.90;;;;;;5072212;28;20973;-73
2021/07/04 01:09:06;;;;;;;15.50;14.17;;;18.70;99.90;;;;;;5070681;28;20578;-73
2021/07/04 01:11:31;;;;;;;17.13;15.53;;;18.70;99.90;;;;;;5071680;28;20423;-73
2021/07/04 01:13:57;;;;;;;15.57;13.97;;;18.70;99.90;;;;;;5071872;28;20683;-73
2021/07/04 01:16:23;;;;;;;15.43;14.10;;;18.70;99.90;;;;;;5072101;28;20524;-73
2021/07/04 01:18:49;;;;;;;18.23;16.33;;;18.70;99.90;;;;;;5071757;28;20191;-73
2021/07/04 01:21:15;;;;;;;15.93;14.43;;;18.80;99.90;;;;;;5072161;28;20403;-73
2021/07/04 01:23:41;;;;;;;18.37;16.50;;;18.70;99.90;;;;;;5071978;28;20420;-73
2021/07/04 01:26:07;;;;;;;17.97;16.07;;;18.70;99.90;;;;;;5071712;28;20427;-73
2021/07/04 01:28:33;;;;;;;17.30;15.67;;;18.80;99.90;;;;;;5071740;28;20258;-73
2021/07/04 01:30:59;;;;;;;18.03;15.83;;;18.70;99.90;;;;;;5071510;28;20213;-73
2021/07/04 01:33:26;;;;;;;18.03;16.33;;;18.70;99.90;;;;;;5071633;28;20900;-73
2021/07/04 01:35:52;;;;;;;17.03;15.40;;;18.70;99.90;;;;;;5071858;28;20219;-73
2021/07/04 01:38:17;;;;;;;17.10;15.60;;;18.70;99.90;;;;;;5071168;28;20828;-73
2021/07/04 01:40:43;;;;;;;18.33;16.50;;;18.70;99.90;;;;;;5071470;28;20170;-73
2021/07/04 01:43:09;;;;;;;18.00;16.30;;;18.70;99.90;;;;;;5071556;28;20221;-73
2021/07/04 01:45:36;;;;;;;17.23;15.43;;;18.70;99.90;;;;;;5071379;28;20517;-73
2021/07/04 01:48:02;;;;;;;19.40;17.30;;;18.70;99.90;;;;;;5071529;28;20181;-73
2021/07/04 01:50:32;;;;;;;18.00;16.20;;;18.70;99.90;;;;;;5071806;28;20424;-73
2021/07/04 01:52:57;;;;;;;18.80;17.00;;;18.70;99.90;;;;;;5071776;28;20673;-73
2021/07/04 01:55:24;;;;;;;18.43;16.67;;;18.70;99.90;;;;;;5071443;28;20411;-73
2021/07/04 01:57:50;;;;;;;20.50;18.50;;;18.70;99.90;;;;;;5071467;28;20524;-73
2021/07/04 02:02:54;;;;;;;18.10;16.40;;;18.70;99.90;;;;;;5062823;28;20515;-73
2021/07/04 02:05:21;;;;;;;17.87;16.07;;;18.60;99.90;;;;;;5049483;28;20391;-73
2021/07/04 02:07:47;;;;;;;17.40;15.60;;;18.60;99.90;;;;;;5049083;28;20760;-73
2021/07/04 02:10:20;;;;;;;17.77;15.97;;;18.60;99.90;;;;;;5049395;28;20399;-73
2021/07/04 02:12:45;;;;;;;18.03;16.33;;;18.60;99.90;;;;;;5049228;28;20467;-73
2021/07/04 02:15:15;;;;;;;15.47;14.10;;;18.60;99.90;;;;;;5049178;28;20494;-73
2021/07/04 02:17:41;;;;;;;17.60;15.90;;;18.50;99.90;;;;;;5049285;28;20156;-73
2021/07/04 02:25:45;;;;;;;18.73;16.97;;;18.50;99.90;;;;;;5069549;28;20512;-74
2021/07/04 02:28:13;;;;;;;17.90;16.10;;;18.50;99.90;;;;;;5069475;28;20480;-74
2021/07/04 02:30:40;;;;;;;17.73;16.03;;;18.50;99.90;;;;;;5069373;28;20478;-74
2021/07/04 02:33:07;;;;;;;18.30;16.47;;;18.50;99.90;;;;;;5069588;28;20448;-74
2021/07/04 02:35:43;;;;;;;17.73;15.93;;;18.50;99.90;;;;;;5069362;28;20757;-74
2021/07/04 02:38:09;;;;;;;19.97;17.40;;;18.50;99.90;;;;;;5068211;28;20420;-74
2021/07/04 02:40:35;;;;;;;19.60;17.70;;;18.50;99.90;;;;;;5069265;28;20402;-74
2021/07/04 02:43:01;;;;;;;20.00;17.90;;;18.50;99.90;;;;;;5069204;28;20156;-74
2021/07/04 02:45:28;;;;;;;19.13;17.33;;;18.50;99.90;;;;;;5069054;28;20450;-74
2021/07/04 02:47:54;;;;;;;19.27;16.73;;;18.50;99.90;;;;;;5069498;28;20448;-74
2021/07/04 02:50:21;;;;;;;20.87;18.17;;;18.50;99.90;;;;;;5069160;28;20483;-72
2021/07/04 02:52:49;;;;;;;17.30;15.60;;;18.50;99.90;;;;;;5069313;28;20155;-72
2021/07/04 02:55:15;;;;;;;18.60;16.60;;;18.60;99.90;;;;;;5051027;28;20771;-72
2021/07/04 02:57:40;;;;;;;18.23;16.57;;;18.60;99.90;;;;;;5049371;28;20391;-68
2021/07/04 03:00:09;;;;;;;17.30;15.63;;;18.60;99.90;;;;;;5049356;28;20287;-69
2021/07/04 03:02:35;;;;;;;18.07;16.33;;;18.60;99.90;;;;;;5048835;28;20208;-68
2021/07/04 03:05:02;;;;;;;17.40;15.77;;;18.60;99.90;;;;;;5048805;28;21093;-69
2021/07/04 03:07:27;;;;;;;16.50;14.97;;;18.60;99.90;;;;;;5051329;28;20471;-68
2021/07/04 03:09:53;;;;;;;17.60;16.00;;;18.60;99.90;;;;;;5068171;28;20445;-68
2021/07/04 03:12:18;;;;;;;17.87;16.17;;;18.50;99.90;;;;;;5049476;28;20178;-68
2021/07/04 03:14:44;;;;;;;18.20;16.53;;;18.50;99.90;;;;;;5048524;28;20164;-68
2021/07/04 03:17:10;;;;;;;16.60;14.90;;;18.50;99.90;;;;;;5048474;28;20160;-68
2021/07/04 03:19:35;;;;;;;18.60;16.70;;;18.50;99.90;;;;;;5048661;28;20168;-69
2021/07/04 03:22:01;;;;;;;16.50;14.93;;;18.40;99.90;;;;;;5048433;28;20194;-68
2021/07/04 03:24:27;;;;;;;17.43;15.73;;;18.40;99.90;;;;;;5048006;28;20208;-68
2021/07/04 03:26:53;;;;;;;17.53;15.87;;;18.40;99.90;;;;;;5048314;28;20162;-68
2021/07/04 03:29:19;;;;;;;16.67;14.97;;;18.30;99.90;;;;;;5066382;28;20539;-68
2021/07/04 03:31:45;;;;;;;17.10;15.40;;;18.30;99.90;;;;;;5067966;28;20379;-68
2021/07/04 03:34:10;;;;;;;18.40;16.47;;;18.30;99.90;;;;;;5068027;28;20184;-68
2021/07/04 03:36:36;;;;;;;16.93;15.40;;;18.30;99.90;;;;;;5057680;28;20161;-68
2021/07/04 03:39:02;;;;;;;15.80;14.33;;;18.20;99.90;;;;;;5038364;28;20189;-68
2021/07/04 03:41:28;;;;;;;17.73;16.03;;;18.20;99.90;;;;;;5034683;28;20207;-68
2021/07/04 03:43:53;;;;;;;20.63;15.57;;;18.20;99.90;;;;;;5034626;28;20474;-68
2021/07/04 03:46:20;;;;;;;18.30;16.60;;;18.10;99.90;;;;;;5034888;28;20169;-69
2021/07/04 03:48:45;;;;;;;18.43;16.57;;;18.10;99.90;;;;;;5035076;28;20157;-68
2021/07/04 03:51:11;;;;;;;17.57;16.00;;;18.10;99.90;;;;;;5034747;28;20398;-68
2021/07/04 03:53:37;;;;;;;16.83;15.33;;;18.00;99.90;;;;;;5034410;28;20161;-68
2021/07/04 03:56:03;;;;;;;17.43;15.63;;;18.00;99.90;;;;;;5034492;28;20157;-68
2021/07/04 03:58:29;;;;;;;18.50;16.90;;;18.00;99.90;;;;;;5034386;28;20202;-68
2021/07/04 04:00:55;;;;;;;19.87;17.80;;;17.90;99.90;;;;;;5034369;28;20425;-68
2021/07/04 04:03:20;;;;;;;18.87;16.87;;;18.00;99.90;;;;;;5053376;28;20951;-68
2021/07/04 04:05:46;;;;;;;17.87;16.10;;;17.90;99.90;;;;;;5054339;28;20580;-70
2021/07/04 04:08:11;;;;;;;18.33;16.53;;;17.90;99.90;;;;;;5045499;28;20223;-70
2021/07/04 04:10:37;;;;;;;19.77;17.97;;;17.90;99.90;;;;;;5034275;28;20153;-70
2021/07/04 04:13:02;;;;;;;19.83;17.93;;;17.90;99.90;;;;;;5034219;28;20157;-70
2021/07/04 04:15:28;;;;;;;18.37;16.57;;;17.90;99.90;;;;;;5034373;28;20168;-70
2021/07/04 04:17:56;;;;;;;18.03;16.30;;;17.90;99.90;;;;;;5034459;28;20173;-70
2021/07/04 04:20:22;;;;;;;17.00;15.43;;;17.90;99.90;;;;;;5052753;28;20207;-70
2021/07/04 04:22:48;;;;;;;17.90;16.20;;;18.00;99.90;;;;;;5054081;28;20423;-70
2021/07/04 04:25:13;;;;;;;18.07;16.40;;;18.00;99.90;;;;;;5053667;28;20237;-69
2021/07/04 04:27:39;;;;;;;19.00;17.00;;;18.00;99.90;;;;;;5053929;28;20839;-69
2021/07/04 04:30:06;;;;;;;16.70;15.20;;;18.10;99.90;;;;;;5055064;28;20160;-69
2021/07/04 04:32:32;;;;;;;17.67;15.90;;;18.10;99.90;;;;;;5054310;28;20642;-69
2021/07/04 04:34:57;;;;;;;16.80;15.20;;;18.20;99.90;;;;;;5053650;28;20413;-69
2021/07/04 04:37:23;;;;;;;15.47;14.07;;;18.20;99.90;;;;;;5051134;28;20219;-69
2021/07/04 04:39:48;;;;;;;15.00;13.60;;;18.30;99.90;;;;;;5053524;28;20688;-69
2021/07/04 04:42:14;;;;;;;14.60;13.20;;;18.30;99.90;;;;;;5053392;28;20171;-69
2021/07/04 04:44:40;;;;;;;14.33;13.03;;;18.40;99.90;;;;;;5053930;28;20189;-69
2021/07/04 04:47:06;;;;;;;14.67;13.37;;;18.30;99.90;;;;;;5052804;28;20572;-69
2021/07/04 04:49:35;;;;;;;12.97;11.70;;;18.40;99.90;;;;;;5053373;28;20160;-70
2021/07/04 04:52:02;;;;;;;13.37;12.17;;;18.40;99.90;;;;;;5053345;28;20705;-69
2021/07/04 04:54:28;;;;;;;13.27;11.90;;;18.50;99.90;;;;;;5034081;28;20416;-69
2021/07/04 04:56:54;;;;;;;11.87;10.80;;;18.60;99.90;;;;;;5033486;28;20394;-69
2021/07/04 04:59:19;;;;;;;13.03;11.83;;;18.60;99.90;;;;;;5033366;28;20685;-69
2021/07/04 05:01:45;;;;;;;11.57;9.47;;;18.60;99.90;;;;;;5033416;28;20532;-69
2021/07/04 05:04:10;;;;;;;12.07;10.97;;;18.70;99.90;;;;;;5034758;28;20209;-69
2021/07/04 05:06:36;;;;;;;10.10;9.10;;;18.60;99.90;;;;;;5033265;28;20534;-69
2021/07/04 05:09:03;;;;;;;10.50;9.50;;;18.70;99.90;;;;;;5034320;28;20168;-70
2021/07/04 05:11:29;;;;;;;11.27;10.17;;;18.80;99.90;;;;;;5052492;28;20209;-69
2021/07/04 05:13:54;;;;;;;10.13;9.30;;;18.80;99.90;;;;;;5053739;28;20482;-69
2021/07/04 05:16:20;;;;;;;8.83;8.13;;;18.90;99.90;;;;;;5053178;28;20167;-70
2021/07/04 05:18:46;;;;;;;10.33;9.50;;;19.00;99.90;;;;;;5052984;28;20177;-70
2021/07/04 05:21:11;;;;;;;9.30;8.50;;;19.00;99.90;;;;;;5053018;28;20159;-69
2021/07/04 05:23:37;;;;;;;9.40;8.60;;;19.10;99.90;;;;;;5052712;28;20264;-69
2021/07/04 05:26:02;;;;;;;8.87;8.13;;;19.20;99.90;;;;;;5053608;28;20152;-69
2021/07/04 05:28:28;;;;;;;8.90;8.20;;;19.20;99.90;;;;;;5052757;28;20172;-69
2021/07/04 05:30:55;;;;;;;8.50;7.70;;;19.20;99.90;;;;;;5052918;28;20213;-69
2021/07/04 05:33:22;;;;;;;9.67;8.87;;;19.20;99.90;;;;;;5052626;28;20170;-69
2021/07/04 05:35:48;;;;;;;9.23;8.40;;;19.30;99.90;;;;;;5052846;28;20411;-69
2021/07/04 05:38:18;;;;;;;9.50;8.67;;;19.30;99.90;;;;;;5042300;28;20416;-69
2021/07/04 05:40:46;;;;;;;10.27;8.23;;;19.30;99.90;;;;;;5032766;28;20562;-69
2021/07/04 05:43:11;;;;;;;9.37;8.50;;;19.30;99.90;;;;;;5034077;28;20392;-69
2021/07/04 05:45:37;;;;;;;8.90;8.13;;;19.40;99.90;;;;;;5052364;28;20449;-69
2021/07/04 05:48:04;;;;;;;8.93;8.13;;;19.60;99.90;;;;;;5052316;28;20163;-69
2021/07/04 05:50:30;;;;;;;7.70;7.03;;;19.70;99.90;;;;;;5052419;28;20656;-69
2021/07/04 05:52:55;;;;;;;8.77;7.97;;;19.80;99.90;;;;;;5053780;28;20391;-69
2021/07/04 05:55:22;;;;;;;8.17;7.37;;;19.90;99.90;;;;;;5054084;28;20523;-69
2021/07/04 05:57:48;;;;;;;9.17;8.03;;;20.00;99.90;;;;;;5052796;28;20179;-69
2021/07/04 06:00:14;;;;;;;8.57;7.87;;;20.10;99.90;;;;;;5051329;28;21013;-69
2021/07/04 06:02:40;;;;;;;9.90;8.90;;;20.20;99.90;;;;;;5043110;28;20239;-69
2021/07/04 06:05:06;;;;;;;10.70;9.00;;;20.20;99.90;;;;;;5032075;28;20447;-69
2021/07/04 06:07:31;;;;;;;8.67;7.53;;;20.20;99.90;;;;;;5032562;28;20584;-69
2021/07/04 06:09:57;;;;;;;8.83;8.03;;;20.20;99.90;;;;;;5032821;28;20392;-69
2021/07/04 06:12:23;;;;;;;8.73;8.00;;;20.30;99.90;;;;;;5032992;28;20222;-69
2021/07/04 06:14:48;;;;;;;8.93;8.03;;;20.30;99.90;;;;;;5032438;28;20247;-69
2021/07/04 06:17:14;;;;;;;8.93;8.13;;;20.40;99.90;;;;;;5033028;28;20247;-69
2021/07/04 06:19:39;;;;;;;9.27;8.47;;;20.40;99.90;;;;;;5031998;28;20169;-70
2021/07/04 06:22:05;;;;;;;8.30;7.60;;;20.50;99.90;;;;;;5033340;28;20218;-70
2021/07/04 06:24:30;;;;;;;7.37;6.77;;;20.50;99.90;;;;;;5032451;28;20204;-70
2021/07/04 06:26:56;;;;;;;8.73;7.93;;;20.50;99.90;;;;;;5032931;28;20165;-70
2021/07/04 06:29:22;;;;;;;8.87;8.07;;;20.50;99.90;;;;;;5032159;28;20153;-71
2021/07/04 06:31:47;;;;;;;8.70;7.97;;;20.40;99.90;;;;;;5033186;28;20634;-70
2021/07/04 06:34:13;;;;;;;9.10;8.30;;;20.40;99.90;;;;;;5051156;28;20260;-70
2021/07/04 06:36:38;;;;;;;8.67;7.97;;;20.40;99.90;;;;;;5052914;28;20168;-70
2021/07/04 06:39:04;;;;;;;8.93;8.13;;;20.40;99.90;;;;;;5053385;28;20156;-70
2021/07/04 06:41:30;;;;;;;9.00;7.90;;;20.40;99.90;;;;;;5038099;28;20627;-70
2021/07/04 06:43:56;;;;;;;9.50;8.67;;;20.50;99.90;;;;;;5031673;28;20455;-70
2021/07/04 06:46:21;;;;;;;8.83;8.07;;;20.50;99.90;;;;;;5031897;28;20157;-71
2021/07/04 06:48:47;;;;;;;11.23;8.47;;;20.50;99.90;;;;;;5032172;28;20219;-70
2021/07/04 06:51:12;;;;;;;10.27;8.17;;;20.60;99.90;;;;;;5032935;28;20176;-70
2021/07/04 06:53:38;;;;;;;9.83;8.93;;;20.80;99.90;;;;;;5052046;28;20160;-70
2021/07/04 06:56:04;;;;;;;10.83;9.83;;;20.80;99.90;;;;;;5052036;28;20222;-70
2021/07/04 06:58:30;;;;;;;9.17;7.80;;;20.80;99.90;;;;;;5051574;28;20241;-70
2021/07/04 07:00:55;;;;;;;9.37;8.47;;;20.90;99.90;;;;;;5051891;28;20410;-70
2021/07/04 07:03:21;;;;;;;9.70;8.80;;;20.90;99.90;;;;;;5037349;28;20181;-70
2021/07/04 07:05:47;;;;;;;10.03;9.10;;;21.10;99.90;;;;;;5031782;28;20599;-70
2021/07/04 07:08:12;;;;;;;8.97;8.17;;;21.30;99.90;;;;;;5033046;28;20157;-70
2021/07/04 07:10:38;;;;;;;8.47;7.63;;;21.40;99.90;;;;;;5052322;28;20652;-70
2021/07/04 07:13:04;;;;;;;8.50;7.60;;;21.60;99.90;;;;;;5055385;28;20153;-70
2021/07/04 07:15:30;;;;;;;8.10;7.37;;;21.70;99.90;;;;;;5055347;28;20163;-70
2021/07/04 07:17:56;;;;;;;8.43;7.63;;;21.90;99.90;;;;;;5055443;28;20414;-70
2021/07/04 07:20:21;;;;;;;8.13;7.33;;;22.10;99.90;;;;;;5055408;28;20171;-70
2021/07/04 07:22:47;;;;;;;8.13;7.43;;;22.30;99.90;;;;;;5055299;28;20703;-70
2021/07/04 07:25:14;;;;;;;8.33;7.53;;;22.60;99.90;;;;;;5054355;28;20246;-70
2021/07/04 07:27:39;;;;;;;9.37;8.30;;;23.00;99.90;;;;;;5035075;28;20161;-70
2021/07/04 07:30:07;;;;;;;8.40;7.70;;;23.30;99.90;;;;;;5035103;28;20404;-70
2021/07/04 07:32:33;;;;;;;7.40;6.80;;;23.60;99.90;;;;;;5042369;28;20172;-70
2021/07/04 07:34:59;;;;;;;6.90;6.30;;;23.70;99.90;;;;;;5054512;28;20833;-70
2021/07/04 07:37:27;;;;;;;6.43;5.83;;;24.00;99.90;;;;;;5038108;28;20253;-70
2021/07/04 07:39:52;;;;;;;6.80;6.00;;;24.40;99.90;;;;;;5034989;28;20400;-70
2021/07/04 07:42:18;;;;;;;7.70;7.00;;;24.80;99.90;;;;;;5036618;28;20907;-70
2021/07/04 07:44:44;;;;;;;6.70;6.10;;;25.10;99.90;;;;;;5054688;28;20711;-70
2021/07/04 07:47:09;;;;;;;7.50;6.80;;;25.10;99.90;;;;;;5055080;28;20259;-70
2021/07/04 07:49:35;;;;;;;6.70;6.20;;;25.00;99.90;;;;;;5054683;28;20192;-70
2021/07/04 07:52:02;;;;;;;6.43;5.90;;;24.90;99.90;;;;;;5055135;28;20160;-70
2021/07/04 07:54:28;;;;;;;6.93;6.23;;;24.80;99.90;;;;;;5055358;28;20465;-70
2021/07/04 07:56:54;;;;;;;6.73;6.13;;;25.10;99.90;;;;;;5054559;28;20394;-70
2021/07/04 07:59:20;;;;;;;9.17;5.37;;;25.70;99.90;;;;;;5054000;28;20208;-70
2021/07/04 08:01:46;;;;;;;6.57;5.97;;;26.50;99.90;;;;;;5051183;28;20946;-70
2021/07/04 08:04:12;;;;;;;6.20;5.70;;;27.70;99.90;;;;;;5034598;28;20559;-70
2021/07/04 08:06:39;;;;;;;8.40;5.27;;;28.70;99.90;;;;;;5034878;28;20392;-70
2021/07/04 08:09:04;;;;;;;5.70;5.20;;;29.70;99.60;;;;;;5034609;28;20157;-70
2021/07/04 08:11:31;;;;;;;5.30;4.80;;;30.70;96.80;;;;;;5034556;28;20837;-70
2021/07/04 08:13:57;;;;;;;5.77;5.30;;;31.40;91.60;;;;;;5034449;28;20161;-71
2021/07/04 08:16:22;;;;;;;5.80;5.30;;;31.90;90.30;;;;;;5036965;28;20427;-71
2021/07/04 08:18:49;;;;;;;5.63;5.13;;;32.50;83.00;;;;;;5054008;28;20168;-71
2021/07/04 08:21:17;;;;;;;5.50;5.10;;;33.00;77.70;;;;;;5054178;28;20214;-71
2021/07/04 08:23:43;;;;;;;6.13;5.63;;;33.30;74.90;;;;;;5054114;28;20427;-71
2021/07/04 08:26:09;;;;;;;5.57;4.57;;;33.10;73.20;;;;;;5054218;28;20453;-71
2021/07/04 08:28:36;;;;;;;5.70;5.10;;;32.50;72.80;;;;;;5054071;28;20633;-71
2021/07/04 08:31:02;;;;;;;5.80;5.20;;;32.20;72.90;;;;;;5054316;28;20194;-71
2021/07/04 08:33:27;;;;;;;6.40;5.37;;;32.50;73.90;;;;;;5039787;28;21001;-71
2021/07/04 08:35:53;;;;;;;6.20;5.60;;;32.90;69.00;;;;;;5053829;28;20234;-71
2021/07/04 08:38:18;;;;;;;5.87;5.27;;;32.60;66.50;;;;;;5053887;28;20164;-71
2021/07/04 08:40:44;;;;;;;5.37;4.87;;;32.00;68.70;;;;;;5054007;28;20510;-71
2021/07/04 08:43:10;;;;;;;5.80;5.40;;;31.70;73.00;;;;;;5053841;28;20163;-71
2021/07/04 08:45:37;;;;;;;6.80;5.73;;;31.70;73.50;;;;;;5053742;28;20191;-71
2021/07/04 08:48:03;;;;;;;5.73;5.10;;;31.40;73.10;;;;;;5053773;28;20160;-71
2021/07/04 08:50:29;;;;;;;6.43;5.83;;;31.00;74.30;;;;;;5052946;28;20419;-70
2021/07/04 08:52:58;;;;;;;6.50;5.90;;;30.50;74.60;;;;;;5054004;28;20421;-71
2021/07/04 08:55:24;;;;;;;5.13;4.70;;;30.20;78.50;;;;;;5053812;28;20179;-71
2021/07/04 08:57:49;;;;;;;5.90;5.40;;;30.60;76.30;;;;;;5053535;28;20403;-71
2021/07/04 09:00:17;;;;;;;5.27;4.73;;;30.90;75.40;;;;;;5053408;28;20266;-71
2021/07/04 09:02:43;;;;;;;4.70;4.30;;;30.70;72.10;;;;;;5044078;28;20338;-71
2021/07/04 09:05:13;;;;;;;4.77;4.37;;;30.30;74.20;;;;;;5033375;28;20983;-71
2021/07/04 09:07:40;;;;;;;5.00;4.60;;;29.70;73.50;;;;;;5037772;28;20202;-71
2021/07/04 09:10:09;;;;;;;6.20;4.73;;;29.60;76.50;;;;;;5053356;28;20431;-71
2021/07/04 09:15:18;;;;;;;4.50;4.20;;;29.90;74.60;;;;;;5069521;28;20516;-70
2021/07/04 09:17:49;;;;;;;4.80;4.40;;;32.40;71.50;;;;;;5069485;28;20394;-70
2021/07/04 09:20:19;;;;;;;5.47;5.07;;;32.70;70.60;;;;;;5069711;28;20410;-70
2021/07/04 09:22:51;;;;;;;5.37;4.87;;;32.50;64.50;;;;;;5069544;28;20744;-70
2021/07/04 09:30:53;;;;;;;5.97;5.30;;;31.40;70.60;;;;;;5069590;28;20932;-71
2021/07/04 09:38:39;;;;;;;4.97;4.57;;;30.90;72.30;;;;;;5069688;28;20542;-70
2021/07/04 09:41:09;;;;;;;4.70;4.30;;;29.90;72.80;;;;;;5069280;28;20906;-70
2021/07/04 09:43:35;;;;;;;4.33;4.03;;;29.50;74.00;;;;;;5049455;28;20397;-70
2021/07/04 09:46:04;;;;;;;5.13;4.63;;;29.20;77.70;;;;;;5049414;28;20399;-70
2021/07/04 09:51:11;;;;;;;4.80;4.43;;;28.70;77.60;;;;;;5069822;28;20566;-72
2021/07/04 09:53:40;;;;;;;5.97;5.47;;;28.80;78.00;;;;;;5070028;28;20390;-72
2021/07/04 09:56:28;;;;;;;4.73;4.33;;;28.90;78.00;;;;;;5069936;28;20384;-72
2021/07/04 09:58:56;;;;;;;5.90;4.40;;;28.80;79.60;;;;;;5061340;28;20431;-72
2021/07/04 10:04:27;;;;;;;4.90;4.50;;;28.50;77.60;;;;;;5070024;28;20534;-71
2021/07/04 10:06:53;;;;;;;5.33;4.83;;;28.30;80.10;;;;;;5069953;28;20774;-71
2021/07/04 10:09:21;;;;;;;5.97;5.47;;;28.20;81.80;;;;;;5069765;28;20390;-71
2021/07/04 10:11:48;;;;;;;7.03;4.10;;;27.90;79.00;;;;;;5069404;28;20436;-71
2021/07/04 10:14:14;;;;;;;4.73;4.43;;;27.60;82.30;;;;;;5069247;28;20921;-71
2021/07/04 10:16:42;;;;;;;4.13;3.83;;;27.50;81.90;;;;;;5056372;28;20395;-71
2021/07/04 10:19:13;;;;;;;4.80;4.40;;;27.60;82.80;;;;;;5050212;28;20386;-71
2021/07/04 10:21:40;;;;;;;5.63;5.13;;;27.70;85.20;;;;;;5049482;28;20386;-71
2021/07/04 10:24:07;;;;;;;7.20;5.80;;;27.80;85.30;;;;;;5049351;28;20502;-71
2021/07/04 10:26:36;;;;;;;6.20;5.70;;;27.80;86.40;;;;;;5049230;28;20915;-71
2021/07/04 10:29:04;;;;;;;5.73;5.30;;;27.70;87.40;;;;;;5049074;28;20486;-71
2021/07/04 10:31:32;;;;;;;5.93;5.43;;;27.70;89.60;;;;;;5054550;28;20441;-71
2021/07/04 10:37:01;;;;;;;5.73;5.23;;;27.80;89.40;;;;;;5069542;28;20517;-71
2021/07/04 10:39:29;;;;;;;4.33;4.03;;;27.90;88.90;;;;;;5068677;28;20766;-72
2021/07/04 10:41:58;;;;;;;4.77;4.37;;;27.80;90.40;;;;;;5069464;28;20393;-72
2021/07/04 10:47:33;;;;;;;6.53;5.60;;;27.70;86.70;;;;;;5131286;27;20560;-70
2021/07/04 10:52:46;;;;;;;6.20;5.60;;;27.60;85.70;;;;;;5110328;27;21045;-71
2021/07/04 10:55:15;;;;;;;6.00;5.50;;;27.40;89.30;;;;;;5109970;28;20389;-71
2021/07/04 10:57:58;;;;;;;7.93;5.77;;;27.30;90.50;;;;;;5109893;28;20384;-71
2021/07/04 11:00:26;;;;;;;6.20;5.70;;;27.20;90.10;;;;;;5110491;28;20438;-71
2021/07/04 11:13:30;;;;;;;8.30;7.50;;;27.10;91.30;;;;;;5069724;28;20629;-71
2021/07/04 11:18:53;;;;;;;8.33;7.47;;;26.40;99.90;;;;;;5069738;28;21040;-71
2021/07/04 11:21:21;;;;;;;8.83;8.13;;;25.80;99.90;;;;;;5069446;28;20910;-71
2021/07/04 11:24:16;;;;;;;8.77;7.97;;;25.60;99.90;;;;;;5063422;28;20994;-71
2021/07/04 11:26:42;;;;;;;9.43;8.63;;;25.40;99.90;;;;;;5048590;28;20391;-71
2021/07/04 11:29:12;;;;;;;9.50;8.60;;;25.20;99.90;;;;;;5050240;28;20406;-71
2021/07/04 11:31:40;;;;;;;11.77;10.73;;;25.00;99.90;;;;;;5055260;28;20422;-71
2021/07/04 11:34:07;;;;;;;10.03;9.23;;;24.90;99.90;;;;;;5069235;28;20422;-71
2021/07/04 11:36:32;;;;;;;9.13;8.40;;;24.70;99.90;;;;;;5069132;28;20756;-71
2021/07/04 11:41:39;;;;;;;10.40;9.40;;;24.60;99.90;;;;;;5097133;27;20519;-71
2021/07/04 11:44:10;;;;;;;9.50;8.60;;;24.20;99.90;;;;;;5090769;28;20754;-71
2021/07/04 11:46:40;;;;;;;9.50;7.80;;;24.10;99.90;;;;;;5089841;28;20472;-71
2021/07/04 11:49:12;;;;;;;7.30;6.63;;;23.90;99.90;;;;;;5089638;28;20382;-71
2021/07/04 12:00:12;;;;;;;10.83;9.57;;;23.50;99.90;;;;;;5078247;28;21075;-70
2021/07/04 12:02:48;;;;;;;8.30;7.57;;;23.40;99.90;;;;;;5083346;28;20420;-70
2021/07/04 12:05:14;;;;;;;8.27;7.57;;;23.40;99.90;;;;;;5089875;28;20407;-70
2021/07/04 12:07:40;;;;;;;6.00;5.50;;;23.50;99.90;;;;;;5089518;28;20389;-70
2021/07/04 12:10:07;;;;;;;5.57;5.17;;;23.40;99.90;;;;;;5091285;28;20412;-70
2021/07/04 12:12:35;;;;;;;4.80;4.30;;;23.30;99.90;;;;;;5090000;28;20369;-70
2021/07/04 12:15:06;;;;;;;5.10;4.70;;;23.20;99.90;;;;;;5081611;28;20481;-70
2021/07/04 12:20:17;;;;;;;5.63;5.13;;;23.10;99.90;;;;;;5089918;28;20533;-70
2021/07/04 12:22:49;;;;;;;5.23;4.73;;;23.10;99.90;;;;;;5089706;28;20381;-70
2021/07/04 12:25:22;;;;;;;5.00;4.50;;;23.10;99.90;;;;;;5090281;28;21012;-71
2021/07/04 12:27:50;;;;;;;3.57;3.27;;;23.20;99.90;;;;;;5090393;28;20436;-71
2021/07/04 12:35:42;;;;;;;3.00;2.30;;;23.30;99.90;;;;;;5069520;28;20765;-69
2021/07/04 12:38:14;;;;;;;2.50;2.30;;;23.20;99.90;;;;;;5072210;28;20444;-70
2021/07/04 12:46:17;;;;;;;1.60;1.50;;;23.40;99.90;;;;;;5069537;28;20952;-70
2021/07/04 12:48:46;;;;;;;1.30;1.20;;;23.40;99.90;;;;;;5064062;28;20410;-70
2021/07/04 12:51:12;;;;;;;1.40;1.30;;;23.30;99.90;;;;;;5049847;28;20402;-70
2021/07/04 12:58:57;;;;;;;2.70;2.10;;;23.00;99.90;;;;;;5069424;28;20539;-70
2021/07/04 13:12:16;;;;;;;1.73;1.63;;;21.80;99.90;;;;;;5110316;27;20517;-70
2021/07/04 13:22:43;;;;;;;5.20;4.70;;;21.60;99.90;;;;;;5065817;28;20517;-70
2021/07/04 13:30:45;;;;;;;2.10;1.90;;;21.50;99.90;;;;;;5069579;28;20530;-71
2021/07/04 13:33:11;;;;;;;11.53;9.53;;;21.40;99.90;;;;;;5068891;28;20433;-71
2021/07/04 13:35:41;;;;;;;3.33;2.33;;;21.30;99.90;;;;;;5069360;28;20406;-71
2021/07/04 13:40:52;;;;;;;2.97;2.20;;;21.40;99.90;;;;;;5054914;28;20506;-71
2021/07/04 13:43:20;;;;;;;3.23;3.03;;;21.50;99.90;;;;;;5049623;28;20474;-71
2021/07/04 13:51:04;;;;;;;2.73;2.33;;;21.60;99.90;;;;;;5069576;28;20542;-69
2021/07/04 13:53:30;;;;;;;2.70;2.50;;;21.60;99.90;;;;;;5069887;28;20827;-69
2021/07/04 13:55:57;;;;;;;2.10;2.00;;;21.60;99.90;;;;;;5069459;28;20393;-69
2021/07/04 13:58:23;;;;;;;2.00;1.80;;;21.60;99.90;;;;;;5050160;28;20938;-69
2021/07/04 14:00:52;;;;;;;2.17;1.97;;;21.60;99.90;;;;;;5051881;28;20442;-69
2021/07/04 14:03:19;;;;;;;1.83;1.60;;;21.40;99.90;;;;;;5069591;28;20394;-69
2021/07/04 14:05:45;;;;;;;2.10;1.30;;;21.20;99.90;;;;;;5069477;28;20386;-70
2021/07/04 14:08:12;;;;;;;2.03;1.40;;;21.00;99.90;;;;;;5069578;28;20778;-70
2021/07/04 14:10:39;;;;;;;1.90;1.70;;;20.80;99.90;;;;;;5069035;28;20993;-69
2021/07/04 14:13:05;;;;;;;1.83;1.30;;;20.60;99.90;;;;;;5068563;28;20512;-69
2021/07/04 14:15:31;;;;;;;2.10;1.50;;;20.50;99.90;;;;;;5049296;28;20406;-69
2021/07/04 14:17:57;;;;;;;2.60;1.40;;;20.30;99.90;;;;;;5049229;28;20206;-69
2021/07/04 14:20:23;;;;;;;3.10;1.40;;;20.20;99.90;;;;;;5049269;28;20176;-69
2021/07/04 14:22:49;;;;;;;2.23;1.23;;;20.10;99.90;;;;;;5049708;28;20764;-69
2021/07/04 14:25:18;;;;;;;2.70;1.40;;;20.00;99.90;;;;;;5048820;28;20168;-69
2021/07/04 14:27:44;;;;;;;1.20;1.03;;;19.90;99.90;;;;;;5048849;28;20388;-69